Time;durP1;ratioP1;P1;durP2;ratioP2;P2;SDS_P1;SDS_P2;PMS_P1;PMS_P2;Temp;Humidity;BMP_temperature;BMP_pressure;BME280_temperature;BME280_humidity;BME280_pressure;Samples;Min_cycle;Max_cycle;Signal;HPM_P1;HPM_P2
2021/03/08 00:00:25;;;;;;;22.77;15.20;;;2.70;99.90;;;;;;5082335;28;20442;-79
2021/03/08 00:02:52;;;;;;;25.40;15.77;;;2.70;99.90;;;;;;5081057;28;20195;-79
2021/03/08 00:05:18;;;;;;;22.40;15.37;;;2.70;99.90;;;;;;5099307;28;20192;-79
2021/03/08 00:07:45;;;;;;;29.27;15.60;;;2.70;99.90;;;;;;5099390;28;20499;-79
2021/03/08 00:10:13;;;;;;;24.60;15.37;;;2.60;99.90;;;;;;5080631;28;20585;-79
2021/03/08 00:12:38;;;;;;;24.90;15.70;;;2.60;99.90;;;;;;5106314;28;20402;-79
2021/03/08 00:15:06;;;;;;;26.60;16.07;;;2.70;99.90;;;;;;5111976;28;20430;-79
2021/03/08 00:17:32;;;;;;;22.77;15.37;;;2.50;99.90;;;;;;5085555;28;20211;-79
2021/03/08 00:19:57;;;;;;;23.50;14.87;;;2.50;99.90;;;;;;5102235;28;20414;-79
2021/03/08 00:22:23;;;;;;;23.10;16.03;;;2.50;99.90;;;;;;5083781;28;20204;-79
2021/03/08 00:24:48;;;;;;;26.13;15.17;;;2.50;99.90;;;;;;5083513;28;20215;-79
2021/03/08 00:27:14;;;;;;;23.43;15.30;;;2.50;99.90;;;;;;5084531;28;20172;-79
2021/03/08 00:29:40;;;;;;;26.03;16.20;;;2.50;99.90;;;;;;5102013;28;20164;-79
2021/03/08 00:32:07;;;;;;;25.53;15.80;;;2.50;99.90;;;;;;5083808;28;20180;-79
2021/03/08 00:34:34;;;;;;;24.30;15.80;;;2.40;99.90;;;;;;5101230;28;20188;-79
2021/03/08 00:37:00;;;;;;;22.33;15.10;;;2.40;99.90;;;;;;5104916;28;20174;-79
2021/03/08 00:39:25;;;;;;;22.83;15.67;;;2.50;99.90;;;;;;5086370;28;20489;-79
2021/03/08 00:41:51;;;;;;;28.70;16.47;;;2.50;99.90;;;;;;5086056;28;20242;-79
2021/03/08 00:44:17;;;;;;;23.53;15.60;;;2.50;99.90;;;;;;5105302;28;20246;-79
2021/03/08 00:46:42;;;;;;;24.10;16.27;;;2.50;99.90;;;;;;5085402;28;20175;-79
2021/03/08 00:49:08;;;;;;;25.30;16.10;;;2.50;99.90;;;;;;5103598;28;20176;-79
2021/03/08 00:51:33;;;;;;;25.90;16.03;;;2.50;99.90;;;;;;5104268;28;20169;-79
2021/03/08 00:53:59;;;;;;;26.67;16.77;;;2.40;99.90;;;;;;5084606;28;20199;-79
2021/03/08 00:56:25;;;;;;;25.53;16.23;;;2.30;99.90;;;;;;5105322;28;20180;-79
2021/03/08 00:58:50;;;;;;;23.23;15.93;;;2.30;99.90;;;;;;5105558;28;20526;-79
2021/03/08 01:01:16;;;;;;;23.30;15.13;;;2.20;99.90;;;;;;5105444;28;20176;-79
2021/03/08 01:03:41;;;;;;;25.50;15.90;;;1.90;99.90;;;;;;5105249;28;20204;-79
2021/03/08 01:06:07;;;;;;;26.53;15.63;;;2.10;99.90;;;;;;5086851;28;20539;-79
2021/03/08 01:08:33;;;;;;;26.30;14.50;;;1.90;99.90;;;;;;5086480;28;20222;-79
2021/03/08 01:10:59;;;;;;;22.97;16.27;;;2.00;99.90;;;;;;5086607;28;20172;-79
2021/03/08 01:13:25;;;;;;;30.90;18.50;;;1.90;99.90;;;;;;5104769;28;20200;-79
2021/03/08 01:15:51;;;;;;;32.90;19.50;;;1.80;99.90;;;;;;5105103;28;20566;-79
2021/03/08 01:18:17;;;;;;;35.17;19.87;;;2.00;99.90;;;;;;5105189;28;20421;-79
2021/03/08 01:20:43;;;;;;;27.27;17.63;;;1.90;99.90;;;;;;5085837;28;20227;-79
2021/03/08 01:23:09;;;;;;;26.73;16.80;;;2.00;99.90;;;;;;5104363;28;20972;-79
2021/03/08 01:25:35;;;;;;;25.50;16.70;;;2.00;99.90;;;;;;5102974;28;20605;-79
2021/03/08 01:28:02;;;;;;;33.77;20.03;;;1.90;99.90;;;;;;5084276;28;20180;-79
2021/03/08 01:30:31;;;;;;;36.70;19.90;;;1.80;99.90;;;;;;5084423;28;20414;-79
2021/03/08 01:32:56;;;;;;;31.37;18.73;;;1.80;99.90;;;;;;5084665;28;20422;-79
2021/03/08 01:35:22;;;;;;;41.47;22.47;;;1.80;99.90;;;;;;5102813;28;20430;-79
2021/03/08 01:37:48;;;;;;;27.53;17.73;;;1.60;99.90;;;;;;5102208;28;20176;-79
2021/03/08 01:40:16;;;;;;;32.17;17.83;;;1.60;99.90;;;;;;5084182;28;20184;-79
2021/03/08 01:42:43;;;;;;;32.40;18.73;;;1.60;99.90;;;;;;5083654;28;20206;-79
2021/03/08 01:45:14;;;;;;;27.40;17.20;;;1.70;99.90;;;;;;5083472;28;20426;-79
2021/03/08 01:47:41;;;;;;;37.33;22.33;;;1.60;99.90;;;;;;5082629;28;20411;-79
2021/03/08 01:50:17;;;;;;;44.57;28.17;;;1.70;99.90;;;;;;5102455;28;20395;-79
2021/03/08 01:52:43;;;;;;;35.80;21.70;;;1.70;99.90;;;;;;5083424;28;20406;-79
2021/03/08 01:55:10;;;;;;;33.60;19.37;;;1.80;99.90;;;;;;5082852;28;20438;-79
2021/03/08 01:57:36;;;;;;;35.40;20.27;;;1.80;99.90;;;;;;5101550;28;20176;-79
2021/03/08 02:00:04;;;;;;;36.70;22.37;;;1.70;99.90;;;;;;5102196;28;20410;-79
2021/03/08 02:02:29;;;;;;;37.03;24.87;;;1.80;99.90;;;;;;5101343;28;20442;-79
2021/03/08 02:04:55;;;;;;;32.93;21.93;;;1.80;99.90;;;;;;5101885;28;20422;-79
2021/03/08 02:07:21;;;;;;;38.33;25.73;;;1.90;99.90;;;;;;5101290;28;20184;-78
2021/03/08 02:09:47;;;;;;;31.83;20.53;;;1.90;99.90;;;;;;5100868;28;20177;-79
2021/03/08 02:12:34;;;;;;;28.93;19.50;;;1.90;99.90;;;;;;5101873;28;20228;-79
2021/03/08 02:15:11;;;;;;;33.83;19.27;;;1.80;99.90;;;;;;5101400;28;20196;-79
2021/03/08 02:17:48;;;;;;;29.10;18.80;;;1.80;99.90;;;;;;5101263;28;20482;-79
2021/03/08 02:20:23;;;;;;;28.70;18.40;;;1.80;99.90;;;;;;5083224;28;20402;-79
2021/03/08 02:22:54;;;;;;;27.97;18.80;;;1.80;99.90;;;;;;5083050;28;20465;-79
2021/03/08 02:25:44;;;;;;;29.47;18.40;;;1.80;99.90;;;;;;5101732;28;20434;-79
2021/03/08 02:28:47;;;;;;;26.80;17.77;;;1.70;99.90;;;;;;5101248;28;20889;-79
2021/03/08 02:31:15;;;;;;;26.03;16.70;;;1.70;99.90;;;;;;5102039;28;20413;-79
2021/03/08 02:33:51;;;;;;;30.10;18.27;;;1.70;99.90;;;;;;5083727;28;20449;-79
2021/03/08 02:36:18;;;;;;;29.97;17.87;;;1.70;99.90;;;;;;5101720;28;20410;-79
2021/03/08 02:38:48;;;;;;;26.57;16.90;;;1.70;99.90;;;;;;5101846;28;20437;-79
2021/03/08 02:41:17;;;;;;;25.17;16.60;;;1.60;99.90;;;;;;5102682;28;20425;-79
2021/03/08 02:43:46;;;;;;;26.87;16.37;;;1.60;99.90;;;;;;5083709;28;20462;-79
2021/03/08 02:46:25;;;;;;;25.63;17.20;;;1.50;99.90;;;;;;5083460;28;20441;-79
2021/03/08 02:48:51;;;;;;;26.97;16.57;;;1.40;99.90;;;;;;5083694;28;20405;-79
2021/03/08 02:51:21;;;;;;;31.30;16.93;;;1.50;99.90;;;;;;5102239;28;20438;-79
2021/03/08 02:53:49;;;;;;;28.20;17.87;;;1.60;99.90;;;;;;5101884;28;20529;-79
2021/03/08 02:56:19;;;;;;;26.23;16.63;;;1.50;99.90;;;;;;5103043;28;20532;-79
2021/03/08 02:58:53;;;;;;;27.80;17.07;;;1.60;99.90;;;;;;5100947;28;20438;-79
2021/03/08 03:01:19;;;;;;;28.10;17.07;;;1.50;99.90;;;;;;5083663;28;20498;-79
2021/03/08 03:03:56;;;;;;;29.30;17.37;;;1.60;99.90;;;;;;5102432;28;20462;-79
2021/03/08 03:06:27;;;;;;;29.93;17.37;;;1.50;99.90;;;;;;5084188;28;20765;-79
2021/03/08 03:08:55;;;;;;;25.37;14.87;;;1.60;99.90;;;;;;5083664;28;20403;-79
2021/03/08 03:11:22;;;;;;;27.43;16.50;;;1.50;99.90;;;;;;5083889;28;20473;-79
2021/03/08 03:13:51;;;;;;;23.57;14.73;;;1.50;99.90;;;;;;5084131;28;20430;-79
2021/03/08 03:16:18;;;;;;;28.63;15.30;;;1.50;99.90;;;;;;5103048;28;20429;-78
2021/03/08 03:18:52;;;;;;;28.70;15.63;;;1.30;99.90;;;;;;5084453;28;20417;-79
2021/03/08 03:21:19;;;;;;;30.93;16.87;;;1.30;99.90;;;;;;5084546;28;20417;-79
2021/03/08 03:23:48;;;;;;;26.03;16.57;;;1.30;99.90;;;;;;5103157;28;20457;-79
2021/03/08 03:26:15;;;;;;;25.10;15.33;;;1.40;99.90;;;;;;5103372;28;20406;-79
2021/03/08 03:28:42;;;;;;;26.60;15.70;;;1.20;99.90;;;;;;5102944;28;20401;-79
2021/03/08 03:31:08;;;;;;;27.70;16.73;;;1.30;99.90;;;;;;5085042;28;20460;-79
2021/03/08 03:33:34;;;;;;;29.37;16.67;;;1.20;99.90;;;;;;5085045;28;20434;-79
2021/03/08 03:36:01;;;;;;;29.10;17.20;;;1.30;99.90;;;;;;5085187;28;20463;-79
2021/03/08 03:38:27;;;;;;;24.60;15.87;;;1.20;99.90;;;;;;5104060;28;20410;-79
2021/03/08 03:40:53;;;;;;;29.93;17.53;;;1.40;99.90;;;;;;5104485;28;20438;-79
2021/03/08 03:43:18;;;;;;;25.87;16.73;;;1.30;99.90;;;;;;5105163;28;20476;-79
2021/03/08 03:45:44;;;;;;;29.63;16.50;;;1.20;99.90;;;;;;5086873;28;20231;-79
2021/03/08 03:48:10;;;;;;;32.67;16.87;;;1.30;99.90;;;;;;5105671;28;20164;-79
2021/03/08 03:50:37;;;;;;;36.70;18.53;;;1.30;99.90;;;;;;5107351;28;20168;-79
2021/03/08 03:53:06;;;;;;;27.70;16.87;;;1.30;99.90;;;;;;5104352;28;20222;-79
2021/03/08 03:55:33;;;;;;;30.40;17.43;;;1.30;99.90;;;;;;5103261;28;20438;-79
2021/03/08 03:57:58;;;;;;;32.20;17.83;;;1.10;99.90;;;;;;5102684;28;20413;-79
2021/03/08 04:00:25;;;;;;;28.53;17.13;;;1.30;99.90;;;;;;5084806;28;20748;-79
2021/03/08 04:03:08;;;;;;;32.47;17.10;;;1.20;99.90;;;;;;5084991;28;20218;-79
2021/03/08 04:05:34;;;;;;;27.70;16.73;;;1.20;99.90;;;;;;5085545;28;21007;-79
2021/03/08 04:08:03;;;;;;;30.47;17.03;;;1.30;99.90;;;;;;5103260;28;20452;-79
2021/03/08 04:10:30;;;;;;;28.23;16.27;;;1.20;99.90;;;;;;5103985;28;20482;-79
2021/03/08 04:13:10;;;;;;;27.30;16.57;;;1.30;99.90;;;;;;5085593;28;20434;-79
2021/03/08 04:15:38;;;;;;;27.50;17.00;;;1.10;99.90;;;;;;5085460;28;20410;-79
2021/03/08 04:18:05;;;;;;;28.53;16.07;;;1.00;99.90;;;;;;5083331;28;20783;-79
2021/03/08 04:20:32;;;;;;;30.07;17.27;;;0.90;99.90;;;;;;5081921;28;20421;-79
2021/03/08 04:23:04;;;;;;;31.53;17.67;;;1.20;99.90;;;;;;5099204;28;20465;-79
2021/03/08 04:25:31;;;;;;;31.70;17.57;;;1.10;99.90;;;;;;5081394;28;20413;-79
2021/03/08 04:28:00;;;;;;;30.67;17.73;;;1.10;99.90;;;;;;5099441;28;20425;-79
2021/03/08 04:30:26;;;;;;;29.83;19.27;;;1.10;99.90;;;;;;5081181;28;20411;-79
2021/03/08 04:32:54;;;;;;;28.23;17.93;;;1.00;99.90;;;;;;5099499;28;20477;-79
2021/03/08 04:35:23;;;;;;;26.57;17.03;;;1.00;99.90;;;;;;5084220;28;20446;-79
2021/03/08 04:37:50;;;;;;;30.93;19.13;;;1.00;99.90;;;;;;5100205;28;20796;-78
2021/03/08 04:40:17;;;;;;;31.17;18.63;;;0.90;99.90;;;;;;5099244;28;20891;-79
2021/03/08 04:42:44;;;;;;;29.70;18.20;;;0.90;99.90;;;;;;5099121;28;20926;-79
2021/03/08 04:45:11;;;;;;;30.37;18.97;;;1.00;99.90;;;;;;5081168;28;20434;-79
2021/03/08 04:47:40;;;;;;;31.17;18.40;;;0.90;99.90;;;;;;5099127;28;20482;-79
2021/03/08 04:50:07;;;;;;;28.70;18.47;;;0.90;99.90;;;;;;5098716;28;20502;-78
2021/03/08 04:52:34;;;;;;;28.00;17.77;;;0.90;99.90;;;;;;5081130;28;20482;-79
2021/03/08 04:55:00;;;;;;;28.57;17.77;;;0.90;99.90;;;;;;5100220;28;20456;-79
2021/03/08 04:57:27;;;;;;;31.50;18.57;;;0.90;99.90;;;;;;5081176;28;20832;-78
2021/03/08 04:59:53;;;;;;;28.77;18.23;;;0.90;99.90;;;;;;5099991;28;20429;-78
2021/03/08 05:02:21;;;;;;;29.03;18.13;;;0.90;99.90;;;;;;5099479;28;20453;-79
2021/03/08 05:04:51;;;;;;;27.10;17.17;;;0.80;99.90;;;;;;5101819;28;20441;-79
2021/03/08 05:07:21;;;;;;;26.70;17.70;;;0.90;99.90;;;;;;5083047;28;20449;-79
2021/03/08 05:09:48;;;;;;;31.73;18.10;;;1.00;99.90;;;;;;5099074;28;20410;-78
2021/03/08 05:12:15;;;;;;;29.33;17.80;;;0.90;99.90;;;;;;5081318;28;20410;-79
2021/03/08 05:14:43;;;;;;;26.47;17.33;;;1.00;99.90;;;;;;5081472;28;20433;-79
2021/03/08 05:17:09;;;;;;;29.10;17.57;;;1.00;99.90;;;;;;5081258;28;20426;-79
2021/03/08 05:19:38;;;;;;;29.87;17.60;;;0.90;99.90;;;;;;5098564;28;20891;-79
2021/03/08 05:22:05;;;;;;;31.20;18.27;;;1.00;99.90;;;;;;5099054;28;20461;-79
2021/03/08 05:24:31;;;;;;;30.87;19.33;;;0.90;99.90;;;;;;5085319;28;20772;-79
2021/03/08 05:26:58;;;;;;;29.63;18.33;;;1.00;99.90;;;;;;5102814;28;20417;-79
2021/03/08 05:29:24;;;;;;;31.83;18.53;;;0.90;99.90;;;;;;5083910;28;20176;-79
2021/03/08 05:31:51;;;;;;;35.33;17.67;;;0.90;99.90;;;;;;5102923;28;20413;-79
2021/03/08 05:34:18;;;;;;;28.57;17.67;;;0.90;99.90;;;;;;5084532;28;20839;-78
2021/03/08 05:36:48;;;;;;;29.90;17.37;;;0.80;99.90;;;;;;5103712;28;20406;-79
2021/03/08 05:39:16;;;;;;;27.47;17.77;;;0.80;99.90;;;;;;5102256;28;20911;-79
2021/03/08 05:41:55;;;;;;;28.07;17.30;;;0.80;99.90;;;;;;5084239;28;20978;-79
2021/03/08 05:44:28;;;;;;;28.90;18.30;;;0.90;99.90;;;;;;5103502;28;20462;-79
2021/03/08 05:46:53;;;;;;;29.30;18.60;;;1.00;99.90;;;;;;5102591;28;20407;-79
2021/03/08 05:49:38;;;;;;;27.00;17.00;;;0.90;99.90;;;;;;5102654;28;20407;-80
2021/03/08 05:52:03;;;;;;;27.00;17.43;;;1.00;99.90;;;;;;5083975;28;20217;-79
2021/03/08 05:54:57;;;;;;;31.40;17.93;;;1.00;99.90;;;;;;5083983;28;20495;-79
2021/03/08 05:57:32;;;;;;;28.10;17.57;;;0.90;99.90;;;;;;5084130;28;20623;-79
2021/03/08 06:00:25;;;;;;;30.77;18.80;;;0.90;99.90;;;;;;5083832;28;20436;-79
2021/03/08 06:03:08;;;;;;;26.57;17.23;;;0.90;99.90;;;;;;5101750;28;20951;-78
2021/03/08 06:06:33;;;;;;;29.87;17.90;;;0.80;99.90;;;;;;5102060;28;20409;-79
2021/03/08 06:09:21;;;;;;;28.43;17.00;;;0.80;99.90;;;;;;5039789;28;20439;-79
2021/03/08 06:12:00;;;;;;;26.57;17.00;;;0.80;99.90;;;;;;5084536;28;20429;-79
2021/03/08 06:14:42;;;;;;;25.70;16.57;;;0.70;99.90;;;;;;5102870;28;20434;-79
2021/03/08 06:17:12;;;;;;;28.93;18.23;;;0.70;99.90;;;;;;5083547;28;20418;-79
2021/03/08 06:19:38;;;;;;;29.77;18.33;;;0.70;99.90;;;;;;5084235;28;20452;-79
2021/03/08 06:22:08;;;;;;;29.17;18.80;;;0.70;99.90;;;;;;5103086;28;20464;-78
2021/03/08 06:24:41;;;;;;;29.83;16.47;;;0.70;99.90;;;;;;5084003;28;20496;-78
2021/03/08 06:27:08;;;;;;;26.27;16.93;;;0.60;99.90;;;;;;5103740;28;20454;-79
2021/03/08 06:29:35;;;;;;;29.20;18.17;;;0.60;99.90;;;;;;5105180;28;20410;-79
2021/03/08 06:32:02;;;;;;;32.33;19.10;;;0.70;99.90;;;;;;5105826;28;20490;-78
2021/03/08 06:34:28;;;;;;;31.00;16.57;;;0.60;99.90;;;;;;5084926;28;20449;-79
2021/03/08 06:36:54;;;;;;;27.50;18.13;;;0.50;99.90;;;;;;5084794;28;20410;-78
2021/03/08 06:39:21;;;;;;;28.97;18.57;;;0.50;99.90;;;;;;5103826;28;20442;-79
2021/03/08 06:41:46;;;;;;;28.67;17.87;;;0.50;99.90;;;;;;5104376;28;20410;-79
2021/03/08 06:44:12;;;;;;;24.83;16.23;;;0.50;99.90;;;;;;5087135;28;20491;-78
2021/03/08 06:46:38;;;;;;;28.23;18.63;;;0.50;99.90;;;;;;5104120;28;20172;-78
2021/03/08 06:49:04;;;;;;;27.27;16.50;;;0.60;99.90;;;;;;5103892;28;20199;-78
2021/03/08 06:51:30;;;;;;;29.83;16.80;;;0.60;99.90;;;;;;5085646;28;20176;-79
2021/03/08 06:53:55;;;;;;;27.83;16.97;;;0.50;99.90;;;;;;5085230;28;20210;-78
2021/03/08 06:56:23;;;;;;;26.10;16.43;;;0.60;99.90;;;;;;5104189;28;20230;-78
2021/03/08 06:59:12;;;;;;;25.07;16.30;;;0.60;99.90;;;;;;5086241;28;20267;-78
2021/03/08 07:01:42;;;;;;;25.53;16.37;;;0.80;99.90;;;;;;5104201;28;20439;-78
2021/03/08 07:04:19;;;;;;;25.57;15.83;;;0.70;99.90;;;;;;5084592;28;20441;-78
2021/03/08 07:07:07;;;;;;;24.87;15.27;;;0.80;99.90;;;;;;5101705;28;20429;-78
2021/03/08 07:09:46;;;;;;;26.47;17.03;;;0.90;99.90;;;;;;5102696;28;20399;-78
2021/03/08 07:12:14;;;;;;;22.27;14.80;;;1.00;99.90;;;;;;5099849;28;20405;-78
2021/03/08 07:14:41;;;;;;;25.93;15.73;;;1.10;99.90;;;;;;5099904;28;20432;-78
2021/03/08 07:17:32;;;;;;;28.17;16.67;;;1.00;99.90;;;;;;5102229;28;20414;-78
2021/03/08 07:20:04;;;;;;;27.80;17.37;;;1.00;99.90;;;;;;5103243;28;20406;-78
2021/03/08 07:22:37;;;;;;;25.90;17.27;;;1.00;99.90;;;;;;5103457;28;20446;-78
2021/03/08 07:25:06;;;;;;;23.13;14.23;;;1.00;99.90;;;;;;5104540;28;20477;-78
2021/03/08 07:27:46;;;;;;;21.77;14.10;;;0.80;99.90;;;;;;5103470;28;20770;-78
2021/03/08 07:30:13;;;;;;;19.30;13.10;;;0.60;99.90;;;;;;5102693;28;20397;-78
2021/03/08 07:32:58;;;;;;;22.70;13.83;;;0.60;99.90;;;;;;5082943;28;20414;-78
2021/03/08 07:35:43;;;;;;;23.13;14.30;;;0.70;99.90;;;;;;5101274;28;20465;-79
2021/03/08 07:38:11;;;;;;;23.27;16.10;;;0.90;99.90;;;;;;5102869;28;20809;-78
2021/03/08 07:40:43;;;;;;;23.70;14.73;;;1.10;99.90;;;;;;5103412;28;20398;-79
2021/03/08 07:43:20;;;;;;;23.50;14.23;;;1.40;99.90;;;;;;5102836;28;20450;-79
2021/03/08 07:45:46;;;;;;;23.47;14.27;;;1.60;99.90;;;;;;5102616;28;20382;-79
2021/03/08 07:48:17;;;;;;;20.57;14.30;;;1.90;99.90;;;;;;5084214;28;20445;-79
2021/03/08 07:50:45;;;;;;;18.50;13.20;;;2.50;99.90;;;;;;5085300;28;20725;-79
2021/03/08 07:53:29;;;;;;;25.37;14.43;;;2.70;99.90;;;;;;5085740;28;20764;-79
2021/03/08 07:56:00;;;;;;;20.87;13.60;;;2.80;99.90;;;;;;5085330;28;20781;-79
2021/03/08 07:58:28;;;;;;;20.03;12.47;;;2.80;99.90;;;;;;5085435;28;20821;-79
2021/03/08 08:00:54;;;;;;;19.13;14.10;;;2.50;99.90;;;;;;5085509;28;20479;-79
2021/03/08 08:03:19;;;;;;;16.50;11.63;;;2.20;99.90;;;;;;5082137;28;20517;-79
2021/03/08 08:05:49;;;;;;;17.90;11.80;;;1.80;99.90;;;;;;5100555;28;20251;-79
2021/03/08 08:08:15;;;;;;;18.03;12.60;;;1.50;99.90;;;;;;5100744;28;20558;-79
2021/03/08 08:10:42;;;;;;;17.63;12.27;;;1.30;99.90;;;;;;5100465;28;20414;-79
2021/03/08 08:13:09;;;;;;;15.77;11.43;;;1.30;99.90;;;;;;5100109;28;20177;-79
2021/03/08 08:15:40;;;;;;;15.93;11.73;;;1.20;99.90;;;;;;5100896;28;20418;-78
2021/03/08 08:18:07;;;;;;;16.10;10.93;;;1.20;99.90;;;;;;5101279;28;20448;-79
2021/03/08 08:20:34;;;;;;;16.03;11.63;;;1.30;99.90;;;;;;5082182;28;20421;-79
2021/03/08 08:23:01;;;;;;;15.70;11.47;;;1.30;99.90;;;;;;5101179;28;20453;-78
2021/03/08 08:25:28;;;;;;;15.23;10.67;;;1.40;99.90;;;;;;5101530;28;20398;-79
2021/03/08 08:27:54;;;;;;;16.93;11.43;;;1.10;99.90;;;;;;5102740;28;20406;-79
2021/03/08 08:30:30;;;;;;;17.67;12.03;;;1.30;99.90;;;;;;5102189;28;20417;-79
2021/03/08 08:32:57;;;;;;;22.57;12.50;;;1.20;99.90;;;;;;5084695;28;20179;-79
2021/03/08 08:35:26;;;;;;;19.57;12.33;;;1.40;99.90;;;;;;5085509;28;20434;-79
2021/03/08 08:38:07;;;;;;;16.73;11.33;;;1.50;99.90;;;;;;5085572;28;20907;-79
2021/03/08 08:40:35;;;;;;;15.27;11.07;;;1.60;99.90;;;;;;5104133;28;20410;-79
2021/03/08 08:43:16;;;;;;;13.07;9.90;;;1.70;99.90;;;;;;5104637;28;20453;-79
2021/03/08 08:45:44;;;;;;;15.87;10.10;;;1.80;99.90;;;;;;5104098;28;20403;-79
2021/03/08 08:48:10;;;;;;;14.63;10.03;;;2.20;99.90;;;;;;5103668;28;20414;-80
2021/03/08 08:51:02;;;;;;;15.00;10.23;;;2.30;99.90;;;;;;5086393;28;20415;-79
2021/03/08 08:53:38;;;;;;;12.00;9.47;;;2.60;99.90;;;;;;5083346;28;20434;-79
2021/03/08 08:56:05;;;;;;;13.20;9.53;;;2.80;99.90;;;;;;5103464;28;20416;-79
2021/03/08 08:58:52;;;;;;;14.50;10.40;;;2.90;99.90;;;;;;5106533;28;20418;-79
2021/03/08 09:01:26;;;;;;;14.53;10.57;;;3.00;99.90;;;;;;5108038;28;20532;-79
2021/03/08 09:03:55;;;;;;;19.40;11.57;;;3.10;99.90;;;;;;5107815;28;20202;-79
2021/03/08 09:06:54;;;;;;;15.17;10.40;;;3.30;99.90;;;;;;5106985;28;20479;-79
2021/03/08 09:09:20;;;;;;;14.80;9.93;;;3.20;99.90;;;;;;5088569;28;20168;-79
2021/03/08 09:12:07;;;;;;;15.67;10.57;;;3.10;99.90;;;;;;5106841;28;20414;-79
2021/03/08 09:14:37;;;;;;;13.90;10.17;;;3.10;99.90;;;;;;5106684;28;20441;-79
2021/03/08 09:17:16;;;;;;;15.83;10.03;;;3.10;99.90;;;;;;5106449;28;20169;-79
2021/03/08 09:19:55;;;;;;;18.53;9.90;;;3.10;99.90;;;;;;5087972;28;20176;-79
2021/03/08 09:22:24;;;;;;;17.50;11.90;;;3.30;99.90;;;;;;5088148;28;20199;-79
2021/03/08 09:24:52;;;;;;;14.13;9.87;;;3.40;99.90;;;;;;5089327;28;20271;-78
2021/03/08 09:27:20;;;;;;;14.53;10.33;;;4.00;99.90;;;;;;5107266;28;20219;-79
2021/03/08 09:29:47;;;;;;;17.33;10.27;;;4.50;99.90;;;;;;5105892;28;20185;-79
2021/03/08 09:32:13;;;;;;;16.03;10.27;;;5.30;99.90;;;;;;5107040;28;20184;-79
2021/03/08 09:34:38;;;;;;;12.87;9.33;;;6.20;99.90;;;;;;5106887;28;20196;-79
2021/03/08 09:37:05;;;;;;;13.03;9.30;;;6.30;99.90;;;;;;5108321;28;20228;-80
2021/03/08 09:39:31;;;;;;;10.40;8.67;;;5.90;99.90;;;;;;5088783;28;20254;-79
2021/03/08 09:41:57;;;;;;;13.57;9.80;;;4.80;99.90;;;;;;5107182;28;20180;-79
2021/03/08 09:44:22;;;;;;;13.93;10.83;;;4.50;99.90;;;;;;5088460;28;20196;-80
2021/03/08 09:46:55;;;;;;;13.63;9.33;;;4.40;99.90;;;;;;5106872;28;20257;-79
2021/03/08 09:49:21;;;;;;;13.50;10.13;;;4.10;99.90;;;;;;5106749;28;20186;-79
2021/03/08 09:51:47;;;;;;;10.53;8.23;;;4.00;99.90;;;;;;5106059;28;20174;-79
2021/03/08 09:54:12;;;;;;;12.63;8.77;;;3.90;99.90;;;;;;5106083;28;20196;-80
2021/03/08 09:56:41;;;;;;;15.93;8.43;;;3.80;99.90;;;;;;5106349;28;20181;-79
2021/03/08 09:59:08;;;;;;;12.93;8.60;;;3.90;99.90;;;;;;5088357;28;20174;-79
2021/03/08 10:01:35;;;;;;;12.07;8.10;;;4.30;99.90;;;;;;5105827;28;20170;-80
2021/03/08 10:04:00;;;;;;;15.83;9.03;;;4.70;99.90;;;;;;5086364;28;20551;-79
2021/03/08 10:06:31;;;;;;;15.43;11.07;;;5.10;99.90;;;;;;5102341;28;20197;-79
2021/03/08 10:08:58;;;;;;;13.10;9.33;;;5.30;99.90;;;;;;5101248;28;20155;-79
2021/03/08 10:11:24;;;;;;;15.23;8.90;;;5.50;99.90;;;;;;5102115;28;20173;-79
2021/03/08 10:13:51;;;;;;;11.47;8.73;;;5.50;99.90;;;;;;5083368;28;20230;-79
2021/03/08 10:16:21;;;;;;;13.93;9.00;;;5.50;99.90;;;;;;5102004;28;20174;-79
2021/03/08 10:18:47;;;;;;;12.43;8.83;;;5.50;99.90;;;;;;5101138;28;20176;-79
2021/03/08 10:21:13;;;;;;;11.80;8.47;;;5.20;99.90;;;;;;5101809;28;20183;-79
2021/03/08 10:23:38;;;;;;;12.03;10.03;;;5.20;99.90;;;;;;5082996;28;20220;-78
2021/03/08 10:26:06;;;;;;;10.07;8.53;;;5.10;99.90;;;;;;5101319;28;20168;-79
2021/03/08 10:28:38;;;;;;;10.17;7.93;;;5.30;99.90;;;;;;5082690;28;20602;-79
2021/03/08 10:31:05;;;;;;;12.03;8.00;;;5.30;99.90;;;;;;5083668;28;20209;-79
2021/03/08 10:33:32;;;;;;;11.00;8.33;;;5.50;99.90;;;;;;5083174;28;20204;-79
2021/03/08 10:35:58;;;;;;;10.87;8.40;;;5.80;99.90;;;;;;5083165;28;20179;-79
2021/03/08 10:38:32;;;;;;;11.53;9.53;;;6.00;99.90;;;;;;5101471;28;20183;-79
2021/03/08 10:41:02;;;;;;;13.63;8.57;;;6.00;99.90;;;;;;5084038;28;20167;-79
2021/03/08 10:43:30;;;;;;;9.03;7.10;;;6.00;99.90;;;;;;5101946;28;20210;-79
2021/03/08 10:46:00;;;;;;;8.47;6.90;;;6.10;99.90;;;;;;5101619;28;20625;-78
2021/03/08 10:48:27;;;;;;;7.57;6.20;;;6.30;99.90;;;;;;5082751;28;20173;-79
2021/03/08 10:50:57;;;;;;;10.70;6.87;;;6.70;99.90;;;;;;5101976;28;20168;-79
2021/03/08 10:53:24;;;;;;;9.80;6.60;;;6.80;97.80;;;;;;5083350;28;20200;-79
2021/03/08 10:55:51;;;;;;;9.07;6.70;;;7.20;98.00;;;;;;5083173;28;20187;-79
2021/03/08 10:58:17;;;;;;;8.63;7.20;;;7.60;98.00;;;;;;5101235;28;20179;-79
2021/03/08 11:00:44;;;;;;;8.00;6.97;;;8.00;98.60;;;;;;5101874;28;20185;-79
2021/03/08 11:03:49;;;;;;;9.13;7.33;;;8.40;97.70;;;;;;5083694;28;20219;-79
2021/03/08 11:06:16;;;;;;;9.43;6.77;;;8.70;99.10;;;;;;5039072;28;20726;-79
2021/03/08 11:08:59;;;;;;;8.93;7.43;;;9.10;96.30;;;;;;5022408;28;20193;-79
2021/03/08 11:11:28;;;;;;;9.27;7.60;;;9.30;95.70;;;;;;5076344;28;20184;-79
2021/03/08 11:13:59;;;;;;;8.80;7.50;;;9.30;91.60;;;;;;5083077;28;20196;-79
2021/03/08 11:16:25;;;;;;;9.17;8.03;;;8.80;94.90;;;;;;5083341;28;20185;-79
2021/03/08 11:18:51;;;;;;;9.87;7.73;;;9.10;92.80;;;;;;5082755;28;20180;-80
2021/03/08 11:21:33;;;;;;;9.90;8.00;;;9.50;90.00;;;;;;5099792;28;20206;-79
2021/03/08 11:24:17;;;;;;;9.80;8.20;;;9.80;89.40;;;;;;5082752;28;20214;-79
2021/03/08 11:27:14;;;;;;;10.80;8.47;;;9.60;91.20;;;;;;5101052;28;20174;-79
2021/03/08 11:29:41;;;;;;;8.93;8.00;;;9.70;90.90;;;;;;5082869;28;20196;-80
2021/03/08 11:32:09;;;;;;;9.63;8.60;;;9.70;89.60;;;;;;5082994;28;20216;-79
2021/03/08 11:34:39;;;;;;;14.17;8.17;;;9.80;87.60;;;;;;5101401;28;20194;-79
2021/03/08 11:37:15;;;;;;;10.37;7.67;;;9.60;87.30;;;;;;5102129;28;20204;-78
2021/03/08 11:39:56;;;;;;;9.37;8.20;;;9.50;88.50;;;;;;5102648;28;20171;-78
2021/03/08 11:42:24;;;;;;;8.07;7.27;;;9.70;87.10;;;;;;5100995;28;20658;-79
2021/03/08 11:44:53;;;;;;;8.67;7.83;;;10.00;86.70;;;;;;5101030;28;20307;-79
2021/03/08 11:47:20;;;;;;;8.33;7.53;;;10.30;83.40;;;;;;5101309;28;20173;-79
2021/03/08 11:49:46;;;;;;;8.70;7.73;;;10.90;84.40;;;;;;5101035;28;20178;-79
2021/03/08 11:52:12;;;;;;;9.87;8.00;;;11.20;80.60;;;;;;5083094;28;20260;-79
2021/03/08 11:54:38;;;;;;;9.83;8.83;;;11.20;76.70;;;;;;5082920;28;20662;-79
2021/03/08 11:57:09;;;;;;;13.43;9.73;;;11.20;77.40;;;;;;5101058;28;20676;-79
2021/03/08 11:59:35;;;;;;;8.93;8.03;;;11.00;75.80;;;;;;5082291;28;20239;-79
2021/03/08 12:02:01;;;;;;;9.77;8.30;;;10.80;73.10;;;;;;5100651;28;20181;-80
2021/03/08 12:04:27;;;;;;;9.27;8.37;;;10.90;77.10;;;;;;5100921;28;20198;-79
2021/03/08 12:06:53;;;;;;;9.07;7.93;;;10.80;71.70;;;;;;5100793;28;20192;-79
2021/03/08 12:09:20;;;;;;;8.70;7.87;;;11.00;71.00;;;;;;5081757;28;20525;-79
2021/03/08 12:11:46;;;;;;;11.27;8.33;;;11.10;69.90;;;;;;5100656;28;20168;-79
2021/03/08 12:14:12;;;;;;;10.73;8.20;;;11.30;74.80;;;;;;5101015;28;20755;-79
2021/03/08 12:16:37;;;;;;;8.83;7.93;;;12.00;69.50;;;;;;5101108;28;20200;-79
2021/03/08 12:19:03;;;;;;;8.00;7.23;;;12.20;65.00;;;;;;5100458;28;20204;-79
2021/03/08 12:21:30;;;;;;;9.40;8.40;;;12.70;68.10;;;;;;5082862;28;20180;-79
2021/03/08 12:23:56;;;;;;;8.57;7.57;;;12.90;63.60;;;;;;5101213;28;20271;-79
2021/03/08 12:26:22;;;;;;;9.00;7.50;;;13.10;66.40;;;;;;5100485;28;20634;-79
2021/03/08 12:28:48;;;;;;;9.57;8.17;;;13.50;64.50;;;;;;5100055;28;20697;-79
2021/03/08 12:31:15;;;;;;;9.77;7.40;;;12.90;58.80;;;;;;5101097;28;20204;-79
2021/03/08 12:33:40;;;;;;;9.40;8.40;;;12.20;59.90;;;;;;5104927;28;20212;-79
2021/03/08 12:36:07;;;;;;;11.33;7.97;;;12.40;64.50;;;;;;5105037;28;20172;-79
2021/03/08 12:38:34;;;;;;;13.43;7.90;;;12.50;61.90;;;;;;5104208;28;20254;-79
2021/03/08 12:41:03;;;;;;;8.23;7.03;;;12.70;62.00;;;;;;5104295;28;20610;-79
2021/03/08 12:43:30;;;;;;;9.43;7.10;;;13.30;60.40;;;;;;5104464;28;20196;-79
2021/03/08 12:45:56;;;;;;;11.30;7.90;;;13.60;57.30;;;;;;5086245;28;20189;-79
2021/03/08 12:48:21;;;;;;;10.20;7.47;;;13.70;56.90;;;;;;5104948;28;20180;-79
2021/03/08 12:50:48;;;;;;;9.33;7.93;;;14.00;56.90;;;;;;5086673;28;20180;-79
2021/03/08 12:53:14;;;;;;;10.40;7.53;;;14.10;57.50;;;;;;5087295;28;20238;-79